createdAt,value
2023-05-22T00:00:04.352Z,94468.00
2023-05-22T00:01:04.362Z,94468.00
2023-05-22T00:02:04.472Z,94468.00
2023-05-22T00:03:04.449Z,94468.00
2023-05-22T00:04:04.407Z,94470.00
2023-05-22T00:05:04.434Z,94468.00
2023-05-22T00:06:04.445Z,94468.00
2023-05-22T00:07:04.453Z,94466.00
2023-05-22T00:08:04.459Z,94466.00
2023-05-22T00:09:04.485Z,94468.00
2023-05-22T00:10:04.519Z,94468.00
2023-05-22T00:11:04.554Z,94466.00
2023-05-22T00:12:04.562Z,94466.00
2023-05-22T00:13:04.564Z,94464.00
2023-05-22T00:14:04.591Z,94462.00
2023-05-22T00:15:04.582Z,94466.00
2023-05-22T00:16:04.596Z,94464.00
2023-05-22T00:17:04.684Z,94462.00
2023-05-22T00:18:04.673Z,94464.00
2023-05-22T00:19:04.695Z,94462.00
2023-05-22T00:20:04.664Z,94460.00
2023-05-22T00:21:04.666Z,94460.00
2023-05-22T00:22:04.680Z,94460.00
2023-05-22T00:23:04.706Z,94456.00
2023-05-22T00:24:04.716Z,94456.00
2023-05-22T00:25:04.765Z,94454.00
2023-05-22T00:26:04.774Z,94456.00
2023-05-22T00:27:04.788Z,94454.00
2023-05-22T00:28:04.793Z,94454.00
2023-05-22T00:29:04.810Z,94456.00
2023-05-22T00:30:04.818Z,94458.00
2023-05-22T00:31:04.859Z,94458.00
2023-05-22T00:32:04.887Z,94460.00
2023-05-22T00:33:04.954Z,94456.00
2023-05-22T00:34:04.979Z,94456.00
2023-05-22T00:35:04.957Z,94458.00
2023-05-22T00:36:04.930Z,94456.00
2023-05-22T00:37:04.968Z,94454.00
2023-05-22T00:38:04.945Z,94454.00
2023-05-22T00:39:04.968Z,94458.00
2023-05-22T00:40:04.980Z,94458.00
2023-05-22T00:41:04.993Z,94460.00
2023-05-22T00:42:05.008Z,94460.00
2023-05-22T00:43:05.022Z,94462.00
2023-05-22T00:44:05.054Z,94460.00
2023-05-22T00:45:05.048Z,94458.00
2023-05-22T00:46:05.074Z,94458.00
2023-05-22T00:47:05.103Z,94456.00
2023-05-22T00:48:05.115Z,94458.00
2023-05-22T00:49:05.089Z,94460.00
2023-05-22T00:50:05.117Z,94458.00
2023-05-22T00:51:05.131Z,94458.00
2023-05-22T00:52:05.153Z,94458.00
2023-05-22T00:53:05.168Z,94460.00
2023-05-22T00:54:05.171Z,94460.00
2023-05-22T00:55:05.172Z,94458.00
2023-05-22T00:56:05.220Z,94458.00
2023-05-22T00:57:05.252Z,94462.00
2023-05-22T00:58:05.229Z,94462.00
2023-05-22T00:59:05.235Z,94458.00
2023-05-22T01:00:05.246Z,94460.00
2023-05-22T01:01:05.257Z,94462.00
2023-05-22T01:02:05.382Z,94462.00
2023-05-22T01:03:05.354Z,94464.00
2023-05-22T01:04:05.406Z,94464.00
2023-05-22T01:05:05.305Z,94466.00
2023-05-22T01:06:05.317Z,94468.00
2023-05-22T01:07:05.336Z,94464.00
2023-05-22T01:08:05.345Z,94466.00
2023-05-22T01:09:05.356Z,94466.00
2023-05-22T01:10:05.365Z,94466.00
2023-05-22T01:11:05.429Z,94466.00
2023-05-22T01:12:05.414Z,94468.00
2023-05-22T01:13:05.440Z,94466.00
2023-05-22T01:14:05.417Z,94464.00
2023-05-22T01:15:05.430Z,94466.00
2023-05-22T01:16:05.555Z,94464.00
2023-05-22T01:17:05.473Z,94462.00
2023-05-22T01:18:05.503Z,94464.00
2023-05-22T01:19:05.542Z,94464.00
2023-05-22T01:20:05.518Z,94466.00
2023-05-22T01:21:05.535Z,94468.00
2023-05-22T01:22:05.583Z,94468.00
2023-05-22T01:23:05.560Z,94470.00
2023-05-22T01:24:05.581Z,94470.00
2023-05-22T01:25:05.590Z,94470.00
2023-05-22T01:26:05.590Z,94470.00
2023-05-22T01:27:05.636Z,94470.00
2023-05-22T01:28:05.620Z,94470.00
2023-05-22T01:29:05.629Z,94468.00
2023-05-22T01:30:05.652Z,94468.00
2023-05-22T01:31:05.673Z,94468.00
2023-05-22T01:32:05.709Z,94466.00
2023-05-22T01:33:05.763Z,94466.00
2023-05-22T01:34:05.777Z,94468.00
2023-05-22T01:35:05.780Z,94470.00
2023-05-22T01:36:05.773Z,94472.00
2023-05-22T01:37:05.808Z,94472.00
2023-05-22T01:38:05.777Z,94472.00
2023-05-22T01:39:05.812Z,94476.00
2023-05-22T01:40:05.813Z,94476.00
2023-05-22T01:41:05.821Z,94479.00
2023-05-22T01:42:05.891Z,94479.00
2023-05-22T01:43:05.881Z,94479.00
2023-05-22T01:44:05.920Z,94481.00
2023-05-22T01:45:05.913Z,94481.00
2023-05-22T01:46:05.952Z,94479.00
2023-05-22T01:47:05.953Z,94483.00
2023-05-22T01:48:05.944Z,94481.00
2023-05-22T01:49:05.966Z,94485.00
2023-05-22T01:50:05.970Z,94487.00
2023-05-22T01:51:05.967Z,94489.00
2023-05-22T01:52:05.999Z,94491.00
2023-05-22T01:53:05.986Z,94491.00
2023-05-22T01:54:06.017Z,94493.00
2023-05-22T01:55:06.013Z,94493.00
2023-05-22T01:56:06.020Z,94495.00
2023-05-22T01:57:06.033Z,94495.00
2023-05-22T01:58:06.044Z,94495.00
2023-05-22T01:59:06.041Z,94493.00
2023-05-22T02:00:06.050Z,94497.00
2023-05-22T02:01:06.109Z,94495.00
2023-05-22T02:02:06.099Z,94497.00
2023-05-22T02:03:06.177Z,94493.00
2023-05-22T02:04:06.088Z,94497.00
2023-05-22T02:05:06.124Z,94497.00
2023-05-22T02:06:06.196Z,94497.00
2023-05-22T02:07:06.127Z,94497.00
2023-05-22T02:08:06.136Z,94497.00
2023-05-22T02:09:06.136Z,94499.00
2023-05-22T02:10:06.166Z,94495.00
2023-05-22T02:11:06.168Z,94493.00
2023-05-22T02:12:06.208Z,94495.00
2023-05-22T02:13:06.211Z,94493.00
2023-05-22T02:14:06.222Z,94493.00
2023-05-22T02:15:06.219Z,94493.00
2023-05-22T02:16:06.305Z,94495.00
2023-05-22T02:17:06.259Z,94493.00
2023-05-22T02:18:06.609Z,94491.00
2023-05-22T02:19:06.573Z,94491.00
2023-05-22T02:20:06.321Z,94491.00
2023-05-22T02:21:06.298Z,94491.00
2023-05-22T02:22:06.409Z,94489.00
2023-05-22T02:23:06.340Z,94489.00
2023-05-22T02:24:06.398Z,94489.00
2023-05-22T02:25:06.369Z,94487.00
2023-05-22T02:26:06.372Z,94487.00
2023-05-22T02:27:06.438Z,94487.00
2023-05-22T02:28:06.421Z,94485.00
2023-05-22T02:29:06.460Z,94483.00
2023-05-22T02:30:06.437Z,94483.00
2023-05-22T02:31:06.483Z,94483.00
2023-05-22T02:32:06.520Z,94479.00
2023-05-22T02:33:06.603Z,94479.00
2023-05-22T02:34:06.560Z,94479.00
2023-05-22T02:35:06.548Z,94479.00
2023-05-22T02:36:06.599Z,94483.00
2023-05-22T02:37:06.619Z,94483.00
2023-05-22T02:38:07.036Z,94483.00
2023-05-22T02:39:06.588Z,94483.00
2023-05-22T02:40:06.669Z,94483.00
2023-05-22T02:41:06.629Z,94485.00
2023-05-22T02:42:06.691Z,94485.00
2023-05-22T02:43:06.672Z,94485.00
2023-05-22T02:44:06.682Z,94485.00
2023-05-22T02:45:06.706Z,94489.00
2023-05-22T02:46:06.764Z,94485.00
2023-05-22T02:47:06.767Z,94489.00
2023-05-22T02:48:06.799Z,94487.00
2023-05-22T02:49:06.773Z,94487.00
2023-05-22T02:50:06.813Z,94487.00
2023-05-22T02:51:06.814Z,94487.00
2023-05-22T02:52:06.825Z,94487.00
2023-05-22T02:53:06.849Z,94487.00
2023-05-22T02:54:06.868Z,94485.00
2023-05-22T02:55:06.880Z,94485.00
2023-05-22T02:56:06.917Z,94485.00
2023-05-22T02:57:06.944Z,94489.00
2023-05-22T02:58:06.968Z,94487.00
2023-05-22T02:59:06.974Z,94493.00
2023-05-22T03:00:07.008Z,94491.00
2023-05-22T03:01:07.007Z,94491.00
2023-05-22T03:02:07.147Z,94491.00
2023-05-22T03:03:07.137Z,94495.00
2023-05-22T03:04:07.194Z,94495.00
2023-05-22T03:05:07.118Z,94493.00
2023-05-22T03:06:07.113Z,94495.00
2023-05-22T03:07:07.134Z,94495.00
2023-05-22T03:08:07.148Z,94493.00
2023-05-22T03:09:07.159Z,94497.00
2023-05-22T03:10:07.225Z,94499.00
2023-05-22T03:11:07.216Z,94499.00
2023-05-22T03:12:07.236Z,94499.00
2023-05-22T03:13:07.277Z,94501.00
2023-05-22T03:14:07.268Z,94499.00
2023-05-22T03:15:07.275Z,94501.00
2023-05-22T03:16:07.378Z,94501.00
2023-05-22T03:17:07.312Z,94503.00
2023-05-22T03:18:07.416Z,94503.00
2023-05-22T03:19:07.441Z,94505.00
2023-05-22T03:20:07.404Z,94505.00
2023-05-22T03:21:07.405Z,94507.00
2023-05-22T03:22:07.411Z,94503.00
2023-05-22T03:23:07.434Z,94503.00
2023-05-22T03:24:07.438Z,94505.00
2023-05-22T03:25:07.449Z,94501.00
2023-05-22T03:26:07.461Z,94501.00
2023-05-22T03:27:07.498Z,94499.00
2023-05-22T03:28:07.506Z,94499.00
2023-05-22T03:29:07.676Z,94499.00
2023-05-22T03:30:07.522Z,94499.00
2023-05-22T03:31:07.515Z,94499.00
2023-05-22T03:32:07.530Z,94497.00
2023-05-22T03:33:07.710Z,94499.00
2023-05-22T03:34:07.658Z,94499.00
2023-05-22T03:35:07.584Z,94501.00
2023-05-22T03:36:07.585Z,94499.00
2023-05-22T03:37:07.601Z,94499.00
2023-05-22T03:38:07.642Z,94499.00
2023-05-22T03:39:07.637Z,94497.00
2023-05-22T03:40:07.679Z,94499.00
2023-05-22T03:41:07.682Z,94495.00
2023-05-22T03:42:07.682Z,94495.00
2023-05-22T03:43:07.709Z,94495.00
2023-05-22T03:44:07.732Z,94495.00
2023-05-22T03:45:07.749Z,94491.00
2023-05-22T03:46:07.801Z,94491.00
2023-05-22T03:47:07.783Z,94491.00
2023-05-22T03:48:07.832Z,94489.00
2023-05-22T03:49:07.820Z,94489.00
2023-05-22T03:50:07.834Z,94487.00
2023-05-22T03:51:07.862Z,94487.00
2023-05-22T03:52:07.898Z,94487.00
2023-05-22T03:53:07.905Z,94489.00
2023-05-22T03:54:07.903Z,94485.00
2023-05-22T03:55:07.917Z,94485.00
2023-05-22T03:56:07.941Z,94487.00
2023-05-22T03:57:07.975Z,94489.00
2023-05-22T03:58:07.978Z,94487.00
2023-05-22T03:59:07.979Z,94489.00
2023-05-22T04:00:07.985Z,94489.00
2023-05-22T04:01:08.015Z,94489.00
2023-05-22T04:02:08.054Z,94491.00
2023-05-22T04:03:08.105Z,94493.00
2023-05-22T04:04:08.055Z,94495.00
2023-05-22T04:05:08.144Z,94495.00
2023-05-22T04:06:08.110Z,94497.00
2023-05-22T04:07:08.112Z,94499.00
2023-05-22T04:08:08.121Z,94497.00
2023-05-22T04:09:08.155Z,94497.00
2023-05-22T04:10:08.157Z,94497.00
2023-05-22T04:11:08.187Z,94495.00
2023-05-22T04:12:08.203Z,94495.00
2023-05-22T04:13:08.201Z,94495.00
2023-05-22T04:14:08.203Z,94497.00
2023-05-22T04:15:08.228Z,94495.00
2023-05-22T04:16:08.248Z,94497.00
2023-05-22T04:17:08.249Z,94499.00
2023-05-22T04:18:08.337Z,94499.00
2023-05-22T04:19:08.357Z,94497.00
2023-05-22T04:20:08.301Z,94499.00
2023-05-22T04:21:08.328Z,94499.00
2023-05-22T04:22:08.343Z,94499.00
2023-05-22T04:23:08.371Z,94501.00
2023-05-22T04:24:08.355Z,94503.00
2023-05-22T04:25:08.384Z,94505.00
2023-05-22T04:26:08.389Z,94503.00
2023-05-22T04:27:08.424Z,94507.00
2023-05-22T04:28:08.431Z,94507.00
2023-05-22T04:29:08.481Z,94511.00
2023-05-22T04:30:08.475Z,94509.00
2023-05-22T04:31:08.537Z,94513.00
2023-05-22T04:32:08.493Z,94511.00
2023-05-22T04:33:08.659Z,94511.00
2023-05-22T04:34:08.527Z,94513.00
2023-05-22T04:35:08.538Z,94515.00
2023-05-22T04:36:10.378Z,94513.00
2023-05-22T04:37:08.650Z,94515.00
2023-05-22T04:38:08.556Z,94515.00
2023-05-22T04:39:08.557Z,94515.00
2023-05-22T04:40:08.590Z,94515.00
2023-05-22T04:41:08.537Z,94513.00
2023-05-22T04:42:08.529Z,94515.00
2023-05-22T04:43:08.516Z,94517.00
2023-05-22T04:44:08.602Z,94519.00
2023-05-22T04:45:08.484Z,94515.00
2023-05-22T04:46:08.541Z,94519.00
2023-05-22T04:47:08.538Z,94521.00
2023-05-22T04:48:08.560Z,94517.00
2023-05-22T04:49:08.464Z,94519.00
2023-05-22T04:50:08.460Z,94523.00
2023-05-22T04:51:08.452Z,94519.00
2023-05-22T04:52:08.447Z,94519.00
2023-05-22T04:53:08.461Z,94521.00
2023-05-22T04:54:08.471Z,94519.00
2023-05-22T04:55:08.462Z,94523.00
2023-05-22T04:56:08.418Z,94521.00
2023-05-22T04:57:08.416Z,94523.00
2023-05-22T04:58:08.529Z,94523.00
2023-05-22T04:59:08.410Z,94521.00
2023-05-22T05:00:08.408Z,94523.00
2023-05-22T05:01:08.433Z,94523.00
2023-05-22T05:02:08.532Z,94526.00
2023-05-22T05:03:08.582Z,94523.00
2023-05-22T05:04:08.479Z,94524.00
2023-05-22T05:05:08.370Z,94526.00
2023-05-22T05:06:08.354Z,94524.00
2023-05-22T05:07:08.332Z,94524.00
2023-05-22T05:08:08.329Z,94523.00
2023-05-22T05:09:08.319Z,94523.00
2023-05-22T05:10:08.330Z,94524.00
2023-05-22T05:11:08.320Z,94524.00
2023-05-22T05:12:08.292Z,94524.00
2023-05-22T05:13:08.292Z,94526.00
2023-05-22T05:14:08.296Z,94523.00
2023-05-22T05:15:08.278Z,94521.00
2023-05-22T05:16:08.352Z,94523.00
2023-05-22T05:17:08.261Z,94521.00
2023-05-22T05:18:08.467Z,94524.00
2023-05-22T05:19:08.284Z,94521.00
2023-05-22T05:20:08.240Z,94521.00
2023-05-22T05:21:08.233Z,94521.00
2023-05-22T05:22:08.229Z,94521.00
2023-05-22T05:23:08.596Z,94521.00
2023-05-22T05:24:08.224Z,94519.00
2023-05-22T05:25:09.589Z,94517.00
2023-05-22T05:26:08.188Z,94519.00
2023-05-22T05:27:08.222Z,94521.00
2023-05-22T05:28:08.175Z,94523.00
2023-05-22T05:29:08.160Z,94523.00
2023-05-22T05:30:08.222Z,94521.00
2023-05-22T05:31:08.147Z,94519.00
2023-05-22T05:32:08.277Z,94519.00
2023-05-22T05:33:08.215Z,94517.00
2023-05-22T05:34:08.166Z,94515.00
2023-05-22T05:35:08.261Z,94513.00
2023-05-22T05:36:08.202Z,94515.00
2023-05-22T05:37:08.122Z,94513.00
2023-05-22T05:38:08.136Z,94511.00
2023-05-22T05:39:08.114Z,94509.00
2023-05-22T05:40:08.103Z,94509.00
2023-05-22T05:41:08.099Z,94509.00
2023-05-22T05:42:08.087Z,94509.00
2023-05-22T05:43:09.340Z,94507.00
2023-05-22T05:44:08.066Z,94509.00
2023-05-22T05:45:08.104Z,94507.00
2023-05-22T05:46:08.117Z,94509.00
2023-05-22T05:47:08.067Z,94505.00
2023-05-22T05:48:08.112Z,94509.00
2023-05-22T05:49:08.080Z,94509.00
2023-05-22T05:50:08.055Z,94507.00
2023-05-22T05:51:08.028Z,94507.00
2023-05-22T05:52:08.032Z,94507.00
2023-05-22T05:53:08.015Z,94507.00
2023-05-22T05:54:08.034Z,94507.00
2023-05-22T05:55:08.007Z,94511.00
2023-05-22T05:56:07.987Z,94511.00
2023-05-22T05:57:07.989Z,94515.00
2023-05-22T05:58:07.966Z,94517.00
2023-05-22T05:59:07.968Z,94517.00
2023-05-22T06:00:07.955Z,94517.00
2023-05-22T06:01:07.950Z,94519.00
2023-05-22T06:02:07.958Z,94519.00
2023-05-22T06:03:08.145Z,94519.00
2023-05-22T06:04:08.046Z,94519.00
2023-05-22T06:05:08.133Z,94521.00
2023-05-22T06:06:08.095Z,94523.00
2023-05-22T06:07:08.192Z,94519.00
2023-05-22T06:08:08.141Z,94523.00
2023-05-22T06:09:08.166Z,94523.00
2023-05-22T06:10:08.207Z,94523.00
2023-05-22T06:11:08.226Z,94523.00
2023-05-22T06:12:08.282Z,94521.00
2023-05-22T06:13:08.305Z,94523.00
2023-05-22T06:14:08.328Z,94521.00
2023-05-22T06:15:08.352Z,94519.00
2023-05-22T06:16:08.426Z,94517.00
2023-05-22T06:17:08.396Z,94519.00
2023-05-22T06:18:08.460Z,94519.00
2023-05-22T06:19:08.479Z,94519.00
2023-05-22T06:20:08.478Z,94517.00
2023-05-22T06:21:08.490Z,94519.00
2023-05-22T06:22:08.546Z,94517.00
2023-05-22T06:23:08.568Z,94519.00
2023-05-22T06:24:08.528Z,94515.00
2023-05-22T06:25:08.518Z,94519.00
2023-05-22T06:26:08.559Z,94517.00
2023-05-22T06:27:08.571Z,94515.00
2023-05-22T06:28:08.570Z,94513.00
2023-05-22T06:29:08.577Z,94515.00
2023-05-22T06:30:08.611Z,94511.00
2023-05-22T06:31:08.684Z,94511.00
2023-05-22T06:32:08.658Z,94511.00
2023-05-22T06:33:08.658Z,94507.00
2023-05-22T06:34:08.805Z,94505.00
2023-05-22T06:35:08.657Z,94507.00
2023-05-22T06:36:08.701Z,94505.00
2023-05-22T06:37:08.724Z,94507.00
2023-05-22T06:38:08.750Z,94505.00
2023-05-22T06:39:09.636Z,94507.00
2023-05-22T06:40:08.855Z,94507.00
2023-05-22T06:41:08.880Z,94507.00
2023-05-22T06:42:08.988Z,94509.00
2023-05-22T06:43:09.098Z,94507.00
2023-05-22T06:44:09.070Z,94505.00
2023-05-22T06:45:09.047Z,94503.00
2023-05-22T06:46:09.432Z,94503.00
2023-05-22T06:47:09.139Z,94503.00
2023-05-22T06:48:09.663Z,94499.00
2023-05-22T06:49:09.161Z,94505.00
2023-05-22T06:50:09.221Z,94503.00
2023-05-22T06:51:09.208Z,94501.00
2023-05-22T06:52:09.219Z,94499.00
2023-05-22T06:53:09.254Z,94501.00
2023-05-22T06:54:09.361Z,94499.00
2023-05-22T06:55:09.295Z,94501.00
2023-05-22T06:56:09.377Z,94501.00
2023-05-22T06:57:09.402Z,94497.00
2023-05-22T06:58:09.397Z,94497.00
2023-05-22T06:59:09.416Z,94495.00
2023-05-22T07:00:09.604Z,94497.00
2023-05-22T07:01:09.658Z,94495.00
2023-05-22T07:02:09.529Z,94495.00
2023-05-22T07:03:09.668Z,94497.00
2023-05-22T07:04:09.579Z,94491.00
2023-05-22T07:05:09.638Z,94493.00
2023-05-22T07:06:09.715Z,94493.00
2023-05-22T07:07:09.686Z,94493.00
2023-05-22T07:08:09.721Z,94491.00
2023-05-22T07:09:09.767Z,94491.00
2023-05-22T07:10:09.780Z,94489.00
2023-05-22T07:11:09.860Z,94489.00
2023-05-22T07:12:09.857Z,94489.00
2023-05-22T07:13:10.180Z,94487.00
2023-05-22T07:14:09.876Z,94483.00
2023-05-22T07:15:09.898Z,94487.00
2023-05-22T07:16:10.030Z,94487.00
2023-05-22T07:17:09.976Z,94485.00
2023-05-22T07:18:10.024Z,94487.00
2023-05-22T07:19:10.026Z,94485.00
2023-05-22T07:20:10.643Z,94485.00
2023-05-22T07:21:10.120Z,94485.00
2023-05-22T07:22:10.157Z,94485.00
2023-05-22T07:23:10.153Z,94483.00
2023-05-22T07:24:10.197Z,94483.00
2023-05-22T07:25:10.211Z,94483.00
2023-05-22T07:26:10.232Z,94481.00
2023-05-22T07:27:10.243Z,94481.00
2023-05-22T07:28:10.275Z,94479.00
2023-05-22T07:29:10.346Z,94477.00
2023-05-22T07:30:10.402Z,94476.00
2023-05-22T07:31:10.391Z,94476.00
2023-05-22T07:32:10.458Z,94474.00
2023-05-22T07:33:10.722Z,94472.00
2023-05-22T07:34:10.465Z,94474.00
2023-05-22T07:35:10.503Z,94470.00
2023-05-22T07:36:10.489Z,94474.00
2023-05-22T07:37:10.536Z,94474.00
2023-05-22T07:38:10.722Z,94468.00
2023-05-22T07:39:10.544Z,94470.00
2023-05-22T07:40:10.582Z,94466.00
2023-05-22T07:41:10.594Z,94466.00
2023-05-22T07:42:10.720Z,94466.00
2023-05-22T07:43:10.680Z,94462.00
2023-05-22T07:44:10.648Z,94464.00
2023-05-22T07:45:10.635Z,94462.00
2023-05-22T07:46:10.695Z,94460.00
2023-05-22T07:47:10.658Z,94460.00
2023-05-22T07:48:10.795Z,94456.00
2023-05-22T07:49:10.691Z,94456.00
2023-05-22T07:50:10.704Z,94452.00
2023-05-22T07:51:10.717Z,94452.00
2023-05-22T07:52:10.735Z,94452.00
2023-05-22T07:53:10.777Z,94452.00
2023-05-22T07:54:10.788Z,94450.00
2023-05-22T07:55:10.852Z,94448.00
2023-05-22T07:56:10.806Z,94448.00
2023-05-22T07:57:10.820Z,94450.00
2023-05-22T07:58:10.865Z,94452.00
2023-05-22T07:59:11.660Z,94450.00
2023-05-22T08:00:11.148Z,94448.00
2023-05-22T08:01:10.894Z,94444.00
2023-05-22T08:02:10.963Z,94448.00
2023-05-22T08:03:10.993Z,94444.00
2023-05-22T08:04:11.169Z,94444.00
2023-05-22T08:05:11.036Z,94442.00
2023-05-22T08:06:11.003Z,94440.00
2023-05-22T08:07:10.990Z,94438.00
2023-05-22T08:08:11.011Z,94438.00
2023-05-22T08:09:11.011Z,94436.00
2023-05-22T08:10:11.659Z,94436.00
2023-05-22T08:11:11.238Z,94434.00
2023-05-22T08:12:11.068Z,94432.00
2023-05-22T08:13:11.079Z,94430.00
2023-05-22T08:14:11.139Z,94429.00
2023-05-22T08:15:11.157Z,94429.00
2023-05-22T08:16:11.142Z,94430.00
2023-05-22T08:17:11.177Z,94429.00
2023-05-22T08:18:11.199Z,94430.00
2023-05-22T08:19:11.298Z,94425.00
2023-05-22T08:20:11.299Z,94427.00
2023-05-22T08:21:11.205Z,94425.00
2023-05-22T08:22:11.274Z,94425.00
2023-05-22T08:23:11.262Z,94425.00
2023-05-22T08:24:11.261Z,94427.00
2023-05-22T08:25:11.297Z,94425.00
2023-05-22T08:26:12.151Z,94423.00
2023-05-22T08:27:11.333Z,94425.00
2023-05-22T08:28:11.647Z,94421.00
2023-05-22T08:29:11.660Z,94425.00
2023-05-22T08:30:11.392Z,94421.00
2023-05-22T08:31:11.325Z,94421.00
2023-05-22T08:32:11.303Z,94419.00
2023-05-22T08:33:11.369Z,94417.00
2023-05-22T08:34:11.294Z,94417.00
2023-05-22T08:35:11.254Z,94415.00
2023-05-22T08:36:11.278Z,94413.00
2023-05-22T08:37:11.277Z,94411.00
2023-05-22T08:38:11.657Z,94413.00
2023-05-22T08:39:12.231Z,94411.00
2023-05-22T08:40:11.285Z,94407.00
2023-05-22T08:41:11.283Z,94401.00
2023-05-22T08:42:11.279Z,94405.00
2023-05-22T08:43:11.646Z,94401.00
2023-05-22T08:44:11.286Z,94403.00
2023-05-22T08:45:11.305Z,94403.00
2023-05-22T08:46:11.295Z,94403.00
2023-05-22T08:47:11.424Z,94401.00
2023-05-22T08:48:11.661Z,94399.00
2023-05-22T08:49:11.666Z,94397.00
2023-05-22T08:50:11.339Z,94399.00
2023-05-22T08:51:11.373Z,94397.00
2023-05-22T08:52:11.372Z,94395.00
2023-05-22T08:53:11.393Z,94393.00
2023-05-22T08:54:11.662Z,94393.00
2023-05-22T08:55:12.157Z,94393.00
2023-05-22T08:56:11.368Z,94391.00
2023-05-22T08:57:11.368Z,94384.00
2023-05-22T08:58:11.341Z,94393.00
2023-05-22T08:59:11.345Z,94391.00
2023-05-22T09:00:11.348Z,94384.00
2023-05-22T09:01:11.384Z,94384.00
2023-05-22T09:02:11.753Z,94380.00
2023-05-22T09:03:11.433Z,94382.00
2023-05-22T09:04:11.416Z,94378.00
2023-05-22T09:05:11.364Z,94380.00
2023-05-22T09:06:11.332Z,94380.00
2023-05-22T09:07:11.323Z,94378.00
2023-05-22T09:08:19.691Z,94376.00
2023-05-22T09:09:12.359Z,94374.00
2023-05-22T09:10:11.365Z,94374.00
2023-05-22T09:11:11.311Z,94372.00
2023-05-22T09:12:11.303Z,94370.00
2023-05-22T09:13:11.416Z,94368.00
2023-05-22T09:14:11.318Z,94366.00
2023-05-22T09:15:11.316Z,94368.00
2023-05-22T09:16:11.272Z,94364.00
2023-05-22T09:17:11.468Z,94364.00
2023-05-22T09:18:11.362Z,94360.00
2023-05-22T09:19:11.278Z,94360.00
2023-05-22T09:20:11.249Z,94356.00
2023-05-22T09:21:25.948Z,94358.00
2023-05-22T09:22:12.238Z,94356.00
2023-05-22T09:23:11.231Z,94354.00
2023-05-22T09:24:11.226Z,94354.00
2023-05-22T09:25:11.218Z,94352.00
2023-05-22T09:26:11.245Z,94354.00
2023-05-22T09:27:11.224Z,94352.00
2023-05-22T09:28:11.207Z,94350.00
2023-05-22T09:29:11.225Z,94350.00
2023-05-22T09:30:11.223Z,94348.00
2023-05-22T09:31:11.256Z,94348.00
2023-05-22T09:32:12.269Z,94352.00
2023-05-22T09:33:11.760Z,94352.00
2023-05-22T09:34:11.202Z,94352.00
2023-05-22T09:35:11.142Z,94348.00
2023-05-22T09:36:11.268Z,94352.00
2023-05-22T09:37:11.169Z,94346.00
2023-05-22T09:38:12.433Z,94352.00
2023-05-22T09:39:11.153Z,94348.00
2023-05-22T09:40:11.147Z,94348.00
2023-05-22T09:41:11.115Z,94348.00
2023-05-22T09:42:11.106Z,94350.00
2023-05-22T09:43:11.192Z,94346.00
2023-05-22T09:44:11.680Z,94348.00
2023-05-22T09:45:11.085Z,94344.00
2023-05-22T09:46:11.179Z,94342.00
2023-05-22T09:47:11.125Z,94342.00
2023-05-22T09:48:11.166Z,94344.00
2023-05-22T09:49:15.089Z,94342.00
2023-05-22T09:50:11.199Z,94344.00
2023-05-22T09:51:11.188Z,94342.00
2023-05-22T09:52:11.185Z,94338.00
2023-05-22T09:53:11.209Z,94338.00
2023-05-22T09:54:11.173Z,94337.00
2023-05-22T09:55:11.243Z,94337.00
2023-05-22T09:56:11.202Z,94333.00
2023-05-22T09:57:11.226Z,94333.00
2023-05-22T09:58:11.272Z,94333.00
2023-05-22T09:59:11.294Z,94329.00
2023-05-22T10:00:11.326Z,94329.00
2023-05-22T10:01:11.359Z,94329.00
2023-05-22T10:02:11.443Z,94329.00
2023-05-22T10:03:11.437Z,94327.00
2023-05-22T10:04:11.562Z,94329.00
2023-05-22T10:05:11.464Z,94327.00
2023-05-22T10:06:11.521Z,94325.00
2023-05-22T10:07:11.584Z,94325.00
2023-05-22T10:08:11.567Z,94327.00
2023-05-22T10:09:11.701Z,94325.00
2023-05-22T10:10:11.632Z,94321.00
2023-05-22T10:11:11.679Z,94325.00
2023-05-22T10:12:11.672Z,94323.00
2023-05-22T10:13:11.707Z,94321.00
2023-05-22T10:14:11.725Z,94315.00
2023-05-22T10:15:11.788Z,94315.00
2023-05-22T10:16:11.863Z,94313.00
2023-05-22T10:17:11.900Z,94311.00
2023-05-22T10:18:11.941Z,94311.00
2023-05-22T10:19:12.029Z,94307.00
2023-05-22T10:20:12.032Z,94309.00
2023-05-22T10:21:12.056Z,94309.00
2023-05-22T10:22:12.166Z,94305.00
2023-05-22T10:23:12.095Z,94301.00
2023-05-22T10:24:12.266Z,94303.00
2023-05-22T10:25:12.147Z,94299.00
2023-05-22T10:26:12.175Z,94299.00
2023-05-22T10:27:12.215Z,94301.00
2023-05-22T10:28:12.252Z,94301.00
2023-05-22T10:29:13.235Z,94299.00
2023-05-22T10:30:12.362Z,94299.00
2023-05-22T10:31:12.505Z,94299.00
2023-05-22T10:32:12.453Z,94297.00
2023-05-22T10:33:12.589Z,94297.00
2023-05-22T10:34:13.210Z,94295.00
2023-05-22T10:35:12.680Z,94295.00
2023-05-22T10:36:12.720Z,94297.00
2023-05-22T10:37:18.443Z,94293.00
2023-05-22T10:38:13.844Z,94295.00
2023-05-22T10:39:12.791Z,94289.00
2023-05-22T10:40:12.745Z,94287.00
2023-05-22T10:41:12.737Z,94287.00
2023-05-22T10:42:12.741Z,94287.00
2023-05-22T10:43:12.838Z,94285.00
2023-05-22T10:44:12.712Z,94287.00
2023-05-22T10:45:12.752Z,94283.00
2023-05-22T10:46:12.794Z,94282.00
2023-05-22T10:47:12.733Z,94283.00
2023-05-22T10:48:12.740Z,94282.00
2023-05-22T10:49:12.706Z,94280.00
2023-05-22T10:50:12.764Z,94278.00
2023-05-22T10:51:12.762Z,94278.00
2023-05-22T10:52:12.771Z,94278.00
2023-05-22T10:53:12.809Z,94276.00
2023-05-22T10:54:12.988Z,94276.00
2023-05-22T10:55:13.007Z,94274.00
2023-05-22T10:56:12.935Z,94270.00
2023-05-22T10:57:12.954Z,94270.00
2023-05-22T10:58:13.227Z,94270.00
2023-05-22T10:59:13.015Z,94266.00
2023-05-22T11:00:13.048Z,94260.00
2023-05-22T11:01:13.087Z,94268.00
2023-05-22T11:02:13.142Z,94266.00
2023-05-22T11:03:17.842Z,94264.00
2023-05-22T11:04:14.160Z,94260.00
2023-05-22T11:05:13.213Z,94260.00
2023-05-22T11:06:13.092Z,94256.00
2023-05-22T11:07:13.131Z,94252.00
2023-05-22T11:08:13.106Z,94252.00
2023-05-22T11:09:13.098Z,94250.00
2023-05-22T11:10:13.167Z,94248.00
2023-05-22T11:11:13.069Z,94246.00
2023-05-22T11:12:13.110Z,94246.00
2023-05-22T11:13:13.173Z,94244.00
2023-05-22T11:14:13.209Z,94244.00
2023-05-22T11:15:13.276Z,94242.00
2023-05-22T11:16:13.345Z,94244.00
2023-05-22T11:17:13.512Z,94240.00
2023-05-22T11:18:13.485Z,94242.00
2023-05-22T11:19:23.403Z,94242.00
2023-05-22T11:20:14.517Z,94238.00
2023-05-22T11:21:13.728Z,94238.00
2023-05-22T11:22:13.458Z,94233.00
2023-05-22T11:23:13.748Z,94231.00
2023-05-22T11:24:13.447Z,94236.00
2023-05-22T11:25:13.438Z,94233.00
2023-05-22T11:26:13.523Z,94233.00
2023-05-22T11:27:13.439Z,94235.00
2023-05-22T11:28:13.428Z,94235.00
2023-05-22T11:29:13.453Z,94231.00
2023-05-22T11:30:13.478Z,94231.00
2023-05-22T11:31:13.592Z,94231.00
2023-05-22T11:32:13.559Z,94231.00
2023-05-22T11:33:13.641Z,94231.00
2023-05-22T11:34:13.669Z,94233.00
2023-05-22T11:35:13.737Z,94233.00
2023-05-22T11:36:13.804Z,94229.00
2023-05-22T11:37:13.862Z,94231.00
2023-05-22T11:38:13.964Z,94227.00
2023-05-22T11:39:13.994Z,94225.00
2023-05-22T11:40:14.055Z,94225.00
2023-05-22T11:41:14.093Z,94225.00
2023-05-22T11:42:14.253Z,94223.00
2023-05-22T11:43:14.313Z,94219.00
2023-05-22T11:44:14.289Z,94219.00